createdAt,value
2022-09-26T00:01:34.008Z,3.17
2022-09-26T00:04:35.287Z,3.30
2022-09-26T00:07:02.636Z,3.17
2022-09-26T00:09:30.304Z,3.00
2022-09-26T00:11:58.134Z,3.15
2022-09-26T00:14:28.485Z,2.97
2022-09-26T00:16:56.581Z,2.90
2022-09-26T00:19:24.747Z,2.80
2022-09-26T00:21:52.268Z,2.43
2022-09-26T00:24:19.629Z,3.00
2022-09-26T00:26:47.185Z,2.95
2022-09-26T00:29:15.263Z,2.40
2022-09-26T00:31:45.225Z,2.78
2022-09-26T00:34:17.716Z,2.50
2022-09-26T00:36:45.061Z,2.60
2022-09-26T00:39:15.124Z,2.67
2022-09-26T00:41:43.526Z,2.60
2022-09-26T00:44:32.780Z,2.38
2022-09-26T00:47:00.787Z,2.57
2022-09-26T00:49:35.055Z,2.60
2022-09-26T00:52:14.086Z,2.30
2022-09-26T00:54:45.722Z,2.80
2022-09-26T00:57:18.231Z,2.65
2022-09-26T01:00:00.388Z,2.47
2022-09-26T01:02:29.294Z,2.33
2022-09-26T01:04:59.293Z,2.60
2022-09-26T01:07:29.955Z,2.38
2022-09-26T01:09:59.103Z,2.60
2022-09-26T01:12:26.451Z,2.70
2022-09-26T01:14:55.537Z,2.40
2022-09-26T01:17:24.702Z,2.60
2022-09-26T01:20:13.575Z,2.60
2022-09-26T01:22:59.622Z,2.65
2022-09-26T01:25:56.038Z,2.20
2022-09-26T01:29:05.055Z,2.65
2022-09-26T01:32:08.935Z,2.60
2022-09-26T01:35:02.420Z,2.05
2022-09-26T01:37:59.925Z,2.30
2022-09-26T01:40:39.650Z,2.37
2022-09-26T01:43:17.010Z,2.78
2022-09-26T01:46:18.287Z,3.03
2022-09-26T01:49:25.031Z,3.03
2022-09-26T01:52:06.560Z,2.80
2022-09-26T01:54:46.955Z,3.00
2022-09-26T01:57:20.049Z,2.90
2022-09-26T01:59:57.891Z,2.83
2022-09-26T02:02:30.088Z,3.20
2022-09-26T02:05:03.798Z,3.20
2022-09-26T02:07:38.085Z,2.93
2022-09-26T02:10:17.754Z,2.70
2022-09-26T02:12:50.013Z,3.00
2022-09-26T02:15:21.132Z,2.80
2022-09-26T02:17:53.827Z,3.30
2022-09-26T02:20:29.869Z,2.90
2022-09-26T02:22:59.545Z,3.10
2022-09-26T02:25:28.635Z,2.53
2022-09-26T02:27:56.379Z,2.53
2022-09-26T02:30:24.074Z,2.38
2022-09-26T02:32:51.475Z,2.67
2022-09-26T02:35:38.254Z,2.83
2022-09-26T02:38:05.981Z,3.05
2022-09-26T02:41:07.596Z,3.33
2022-09-26T02:43:49.866Z,3.38
2022-09-26T02:46:38.700Z,3.20
2022-09-26T02:49:18.226Z,3.30
2022-09-26T02:52:30.814Z,4.00
2022-09-26T02:55:06.766Z,3.47
2022-09-26T02:57:46.021Z,4.32
2022-09-26T03:00:28.909Z,4.57
2022-09-26T03:03:22.421Z,5.32
2022-09-26T03:05:54.892Z,4.93
2022-09-26T03:08:28.496Z,4.40
2022-09-26T03:11:00.069Z,4.05
2022-09-26T03:13:28.244Z,3.90
2022-09-26T03:15:59.777Z,4.38
2022-09-26T03:18:35.843Z,3.83
2022-09-26T03:21:03.462Z,4.20
2022-09-26T03:23:31.926Z,4.00
2022-09-26T03:26:17.583Z,4.43
2022-09-26T03:28:54.189Z,4.32
2022-09-26T03:31:22.614Z,4.60
2022-09-26T03:34:01.086Z,4.78
2022-09-26T03:36:30.067Z,4.70
2022-09-26T03:38:57.411Z,4.33
2022-09-26T03:41:35.549Z,4.80
2022-09-26T03:44:07.829Z,4.13
2022-09-26T03:46:54.977Z,4.88
2022-09-26T03:49:22.906Z,4.75
2022-09-26T03:51:50.542Z,5.17
2022-09-26T03:54:19.347Z,4.53
2022-09-26T03:56:48.160Z,5.20
2022-09-26T03:59:18.090Z,5.20
2022-09-26T04:01:47.903Z,5.00
2022-09-26T04:04:16.799Z,5.57
2022-09-26T04:06:45.268Z,5.32
2022-09-26T04:09:16.965Z,5.50
2022-09-26T04:11:48.546Z,5.45
2022-09-26T04:14:16.180Z,5.25
2022-09-26T04:16:45.191Z,5.30
2022-09-26T04:19:23.306Z,5.20
2022-09-26T04:21:52.532Z,5.05
2022-09-26T04:24:21.670Z,5.13
2022-09-26T04:26:49.370Z,5.30
2022-09-26T04:29:17.624Z,5.00
2022-09-26T04:32:07.933Z,4.85
2022-09-26T04:34:45.760Z,5.03
2022-09-26T04:37:13.725Z,5.00
2022-09-26T04:39:42.359Z,4.97
2022-09-26T04:42:09.714Z,5.03
2022-09-26T04:44:37.297Z,5.68
2022-09-26T04:47:04.645Z,5.10
2022-09-26T04:49:51.897Z,5.30
2022-09-26T04:52:20.590Z,5.57
2022-09-26T04:54:48.745Z,5.10
2022-09-26T04:57:19.514Z,5.32
2022-09-26T04:59:47.757Z,5.70
2022-09-26T05:02:16.024Z,5.70
2022-09-26T05:04:43.828Z,5.20
2022-09-26T05:07:12.060Z,4.70
2022-09-26T05:09:39.533Z,5.53
2022-09-26T05:12:13.097Z,5.25
2022-09-26T05:14:44.921Z,5.18
2022-09-26T05:17:12.373Z,4.60
2022-09-26T05:19:43.306Z,4.13
2022-09-26T05:22:33.700Z,5.00
2022-09-26T05:25:24.742Z,4.53
2022-09-26T05:27:53.751Z,5.03
2022-09-26T05:30:21.427Z,5.28
2022-09-26T05:32:49.677Z,5.13
2022-09-26T05:35:17.596Z,4.90
2022-09-26T05:37:45.222Z,5.30
2022-09-26T05:40:31.600Z,5.18
2022-09-26T05:43:03.503Z,4.70
2022-09-26T05:45:31.555Z,4.37
2022-09-26T05:48:01.901Z,4.82
2022-09-26T05:50:29.226Z,4.65
2022-09-26T05:53:01.201Z,4.80
2022-09-26T05:55:30.156Z,4.65
2022-09-26T05:58:10.265Z,4.60
2022-09-26T06:01:17.606Z,4.70
2022-09-26T06:03:47.353Z,4.63
2022-09-26T06:06:23.847Z,4.40
2022-09-26T06:08:56.529Z,4.38
2022-09-26T06:11:28.185Z,4.20
2022-09-26T06:13:56.196Z,4.63
2022-09-26T06:16:23.879Z,4.32
2022-09-26T06:18:52.925Z,3.75
2022-09-26T06:21:21.405Z,3.88
2022-09-26T06:23:52.743Z,3.50
2022-09-26T06:26:24.558Z,3.63
2022-09-26T06:29:00.661Z,3.33
2022-09-26T06:31:34.043Z,3.50
2022-09-26T06:34:11.498Z,3.30
2022-09-26T06:36:50.553Z,3.60
2022-09-26T06:39:18.145Z,3.20
2022-09-26T06:41:47.239Z,3.70
2022-09-26T06:44:35.178Z,3.05
2022-09-26T06:47:15.378Z,2.97
2022-09-26T06:49:45.474Z,3.40
2022-09-26T06:52:24.559Z,3.38
2022-09-26T06:54:52.111Z,2.90
2022-09-26T06:57:19.852Z,2.88
2022-09-26T06:59:47.369Z,3.20
2022-09-26T07:02:21.462Z,2.50
2022-09-26T07:05:00.092Z,2.88
2022-09-26T07:07:42.673Z,3.08
2022-09-26T07:10:20.270Z,3.22
2022-09-26T07:13:06.968Z,3.10
2022-09-26T07:15:36.475Z,2.83
2022-09-26T07:18:23.814Z,3.00
2022-09-26T07:21:05.362Z,2.97
2022-09-26T07:23:49.356Z,3.28
2022-09-26T07:26:19.947Z,3.38
2022-09-26T07:28:52.179Z,2.93
2022-09-26T07:31:24.027Z,2.80
2022-09-26T07:34:18.089Z,2.88
2022-09-26T07:36:47.744Z,2.97
2022-09-26T07:39:15.945Z,2.58
2022-09-26T07:41:46.146Z,2.60
2022-09-26T07:47:22.703Z,2.70
2022-09-26T07:50:08.902Z,2.35
2022-09-26T07:52:56.270Z,2.80
2022-09-26T07:55:28.108Z,2.70
2022-09-26T07:58:05.179Z,3.05
2022-09-26T08:00:55.920Z,3.20
2022-09-26T08:03:59.086Z,2.85
2022-09-26T08:06:35.350Z,3.05
2022-09-26T08:09:02.968Z,2.67
2022-09-26T08:11:48.686Z,2.50
2022-09-26T08:14:32.990Z,3.10
2022-09-26T08:17:21.647Z,2.58
2022-09-26T08:19:49.205Z,2.40
2022-09-26T08:22:17.094Z,2.77
2022-09-26T08:24:49.969Z,2.70
2022-09-26T08:27:23.403Z,2.88
2022-09-26T08:29:51.789Z,3.25
2022-09-26T08:32:20.766Z,3.10
2022-09-26T08:34:49.565Z,3.03
2022-09-26T08:37:35.631Z,2.63
2022-09-26T08:40:26.079Z,3.03
2022-09-26T08:43:18.957Z,3.20
2022-09-26T08:46:43.830Z,3.80
2022-09-26T08:49:42.667Z,4.10
2022-09-26T08:52:30.318Z,5.45
2022-09-26T08:55:01.792Z,5.55
2022-09-26T08:57:53.371Z,5.22
2022-09-26T09:00:24.556Z,5.00
2022-09-26T09:03:28.518Z,5.00
2022-09-26T09:06:12.081Z,5.38
2022-09-26T09:08:57.062Z,4.80
2022-09-26T09:11:38.436Z,4.75
2022-09-26T09:14:09.125Z,4.70
2022-09-26T09:16:57.294Z,5.00
2022-09-26T09:19:41.920Z,4.68
2022-09-26T09:22:42.047Z,4.70
2022-09-26T09:25:23.526Z,5.00
2022-09-26T09:28:21.152Z,5.05
2022-09-26T09:30:54.385Z,5.20
2022-09-26T09:33:44.274Z,4.50
2022-09-26T09:36:42.171Z,4.40
2022-09-26T09:39:36.297Z,3.90
2022-09-26T09:42:31.096Z,3.70
2022-09-26T09:45:07.314Z,3.77
2022-09-26T09:47:39.637Z,3.47
2022-09-26T09:50:16.915Z,3.42
2022-09-26T09:53:14.347Z,4.25
2022-09-26T09:56:08.540Z,4.40
2022-09-26T09:58:46.973Z,4.33
2022-09-26T10:01:32.820Z,4.13
2022-09-26T10:04:14.284Z,4.20
2022-09-26T10:06:44.146Z,4.50
2022-09-26T10:09:38.729Z,4.43
2022-09-26T10:12:43.898Z,4.17
2022-09-26T10:15:54.931Z,4.60
2022-09-26T10:19:02.291Z,4.60
2022-09-26T10:21:40.864Z,3.78
2022-09-26T10:24:24.743Z,4.30
2022-09-26T10:26:59.710Z,4.53
2022-09-26T10:29:37.098Z,4.15
2022-09-26T10:32:05.837Z,4.00
2022-09-26T10:34:37.420Z,4.07
2022-09-26T10:37:30.318Z,4.15
2022-09-26T10:40:42.199Z,4.30
2022-09-26T10:43:32.683Z,4.10
2022-09-26T10:46:21.690Z,4.22
2022-09-26T10:49:40.397Z,4.35
2022-09-26T10:52:34.186Z,4.00
2022-09-26T10:55:12.294Z,5.10
2022-09-26T10:57:45.942Z,4.15
2022-09-26T11:00:22.271Z,4.35
2022-09-26T11:02:52.554Z,4.47
2022-09-26T11:05:39.996Z,4.90
2022-09-26T11:08:14.485Z,4.60
2022-09-26T11:11:00.641Z,5.38
2022-09-26T11:13:52.469Z,4.88
2022-09-26T11:16:20.630Z,4.53
2022-09-26T11:19:14.414Z,4.78
2022-09-26T11:22:14.801Z,4.40
2022-09-26T11:25:07.061Z,4.28
2022-09-26T11:27:44.226Z,4.50
2022-09-26T11:30:22.060Z,4.28
2022-09-26T11:33:01.195Z,4.18
2022-09-26T11:36:11.331Z,4.20
2022-09-26T11:38:51.067Z,3.90
2022-09-26T11:41:39.392Z,4.50
2022-09-26T11:44:42.194Z,4.43
2022-09-26T11:47:57.001Z,4.22
2022-09-26T11:50:59.970Z,4.00
2022-09-26T11:53:44.601Z,4.05
2022-09-26T11:56:39.322Z,3.75
2022-09-26T11:59:59.646Z,3.90
2022-09-26T12:02:49.236Z,3.60
2022-09-26T12:05:45.607Z,3.63
2022-09-26T12:08:47.876Z,4.13
2022-09-26T12:11:50.032Z,3.80
2022-09-26T12:14:46.672Z,3.97
2022-09-26T12:17:15.220Z,4.43
2022-09-26T12:20:14.336Z,4.20
2022-09-26T12:22:58.937Z,5.43
2022-09-26T12:25:38.166Z,5.07
2022-09-26T12:28:32.157Z,5.32
2022-09-26T12:31:43.086Z,5.03
2022-09-26T12:34:19.542Z,5.00
2022-09-26T12:36:57.162Z,4.47
2022-09-26T12:39:59.981Z,5.28
2022-09-26T12:43:20.086Z,4.68
2022-09-26T12:46:29.519Z,5.28
2022-09-26T12:49:15.143Z,4.40
2022-09-26T12:51:47.617Z,4.50
2022-09-26T12:54:15.282Z,4.30
2022-09-26T12:57:04.662Z,4.85
2022-09-26T12:59:46.578Z,4.28
2022-09-26T13:02:32.875Z,4.90
2022-09-26T13:05:37.287Z,4.63
2022-09-26T13:08:22.109Z,4.10
2022-09-26T13:11:32.399Z,4.18
2022-09-26T13:14:15.257Z,4.25
2022-09-26T13:16:49.413Z,3.77
2022-09-26T13:19:29.969Z,4.60
2022-09-26T13:22:05.651Z,4.15
2022-09-26T13:24:56.602Z,4.40
2022-09-26T13:27:34.625Z,4.50
2022-09-26T13:30:08.612Z,4.40
2022-09-26T13:33:03.747Z,4.05
2022-09-26T13:35:36.304Z,4.13
2022-09-26T13:38:22.028Z,4.35
2022-09-26T13:41:23.002Z,4.65
2022-09-26T13:44:08.858Z,3.70
2022-09-26T13:47:02.101Z,3.70
2022-09-26T13:49:52.262Z,3.60
2022-09-26T13:52:28.640Z,3.65
2022-09-26T13:54:58.323Z,3.83
2022-09-26T13:57:38.074Z,3.40
2022-09-26T14:00:30.700Z,3.40
2022-09-26T14:03:14.162Z,3.00
2022-09-26T14:05:44.882Z,3.20
2022-09-26T14:08:43.065Z,3.17
2022-09-26T14:11:36.020Z,3.30
2022-09-26T14:14:27.279Z,3.03
2022-09-26T14:17:07.813Z,3.30
2022-09-26T14:19:41.770Z,3.25
2022-09-26T14:22:21.062Z,3.40
2022-09-26T14:24:49.980Z,3.57
2022-09-26T14:27:43.463Z,2.83
2022-09-26T14:30:13.617Z,3.22
2022-09-26T14:32:45.838Z,2.90
2022-09-26T14:35:20.204Z,3.30
2022-09-26T14:37:50.655Z,3.43
2022-09-26T14:40:50.118Z,3.42
2022-09-26T14:43:19.702Z,3.15
2022-09-26T14:45:47.146Z,3.58
2022-09-26T14:48:36.190Z,2.97
2022-09-26T14:51:19.595Z,3.10
2022-09-26T14:54:24.782Z,3.00
2022-09-26T14:57:02.689Z,2.78
2022-09-26T14:59:36.119Z,3.10
2022-09-26T15:02:15.648Z,3.20
2022-09-26T15:04:47.029Z,3.00
2022-09-26T15:07:24.574Z,3.40
2022-09-26T15:10:03.356Z,3.22
2022-09-26T15:12:43.121Z,3.25
2022-09-26T15:15:55.777Z,3.92
2022-09-26T15:18:28.718Z,3.80
2022-09-26T15:21:17.745Z,4.00
2022-09-26T15:23:48.604Z,5.05
2022-09-26T15:26:21.272Z,4.10
2022-09-26T15:28:51.131Z,4.30
2022-09-26T15:31:36.977Z,4.57
2022-09-26T15:34:11.062Z,4.32
2022-09-26T15:36:40.582Z,4.70
2022-09-26T15:39:38.347Z,4.40
2022-09-26T15:42:41.754Z,5.00
2022-09-26T15:45:27.347Z,5.13
2022-09-26T15:47:59.822Z,4.95
2022-09-26T15:50:29.707Z,5.05
2022-09-26T15:53:23.089Z,5.15
2022-09-26T15:55:58.791Z,5.40
2022-09-26T15:58:46.643Z,5.23
2022-09-26T16:01:17.702Z,5.53
2022-09-26T16:04:29.945Z,5.43
2022-09-26T16:07:16.742Z,5.93
2022-09-26T16:09:46.029Z,5.75
2022-09-26T16:12:16.416Z,6.00
2022-09-26T16:15:18.370Z,5.78
2022-09-26T16:17:54.398Z,5.90
2022-09-26T16:20:22.324Z,5.18
2022-09-26T16:22:52.026Z,4.60
2022-09-26T16:25:19.442Z,4.97
2022-09-26T16:28:00.360Z,4.25
2022-09-26T16:30:27.777Z,3.78
2022-09-26T16:33:08.331Z,4.25
2022-09-26T16:35:37.908Z,3.53
2022-09-26T16:38:29.884Z,3.10
2022-09-26T16:41:05.582Z,3.10
2022-09-26T16:43:33.213Z,3.03
2022-09-26T16:46:07.756Z,3.10
2022-09-26T16:48:37.056Z,2.90
2022-09-26T16:51:18.831Z,3.33
2022-09-26T16:53:48.779Z,3.28
2022-09-26T16:56:18.783Z,3.60
2022-09-26T16:58:59.063Z,2.88
2022-09-26T17:01:44.997Z,3.10
2022-09-26T17:04:18.058Z,3.00
2022-09-26T17:06:48.728Z,3.30
2022-09-26T17:09:19.021Z,3.20
2022-09-26T17:11:50.032Z,3.30
2022-09-26T17:14:23.771Z,3.75
2022-09-26T17:16:58.660Z,3.90
2022-09-26T17:19:29.993Z,4.05
2022-09-26T17:21:57.578Z,3.90
2022-09-26T17:24:27.146Z,4.30
2022-09-26T17:26:58.470Z,4.68
2022-09-26T17:29:47.703Z,4.47
2022-09-26T17:32:30.325Z,5.13
2022-09-26T17:35:00.318Z,4.90
2022-09-26T17:37:28.713Z,4.93
2022-09-26T17:39:56.756Z,4.93
2022-09-26T17:42:24.472Z,4.53
2022-09-26T17:44:52.088Z,4.97
2022-09-26T17:47:20.732Z,5.10
2022-09-26T17:49:56.435Z,5.20
2022-09-26T17:52:31.563Z,5.45
2022-09-26T17:55:04.322Z,4.80
2022-09-26T17:57:36.046Z,5.30
2022-09-26T18:00:08.857Z,5.35
2022-09-26T18:02:44.065Z,5.65
2022-09-26T18:05:20.837Z,5.75
2022-09-26T18:07:52.802Z,5.43
2022-09-26T18:10:33.442Z,5.55
2022-09-26T18:13:12.730Z,5.00
2022-09-26T18:15:41.633Z,5.05
2022-09-26T18:18:19.653Z,5.57
2022-09-26T18:20:49.175Z,5.20
2022-09-26T18:23:27.437Z,4.80
2022-09-26T18:26:01.877Z,4.85
2022-09-26T18:28:29.424Z,4.60
2022-09-26T18:31:00.763Z,5.15
2022-09-26T18:33:29.345Z,4.77
2022-09-26T18:35:57.985Z,5.07
2022-09-26T18:38:25.482Z,5.22
2022-09-26T18:40:55.827Z,5.03
2022-09-26T18:43:25.723Z,4.88
2022-09-26T18:45:53.362Z,4.90
2022-09-26T18:48:26.481Z,5.00
2022-09-26T18:50:54.766Z,5.25
2022-09-26T18:53:24.026Z,4.60
2022-09-26T18:56:09.916Z,4.85
2022-09-26T18:58:38.281Z,4.63
2022-09-26T19:01:23.689Z,4.60
2022-09-26T19:03:51.558Z,5.00
2022-09-26T19:06:23.502Z,4.90
2022-09-26T19:08:56.959Z,4.40
2022-09-26T19:11:25.860Z,5.10
2022-09-26T19:13:56.401Z,4.88
2022-09-26T19:16:24.941Z,4.45
2022-09-26T19:18:52.865Z,4.63
2022-09-26T19:21:40.530Z,4.97
2022-09-26T19:24:21.236Z,5.10
2022-09-26T19:26:53.529Z,5.80
2022-09-26T19:29:39.027Z,5.80
2022-09-26T19:32:07.785Z,5.47
2022-09-26T19:34:35.234Z,5.43
2022-09-26T19:37:04.217Z,4.67
2022-09-26T19:39:32.135Z,4.45
2022-09-26T19:41:59.749Z,4.53
2022-09-26T19:44:27.463Z,4.95
2022-09-26T19:46:54.978Z,5.20
2022-09-26T19:49:30.238Z,4.90
2022-09-26T19:52:01.238Z,5.10
2022-09-26T19:54:28.705Z,4.57
2022-09-26T19:56:56.265Z,4.72
2022-09-26T19:59:27.332Z,4.40
2022-09-26T20:01:55.458Z,4.37
2022-09-26T20:04:23.210Z,4.32
2022-09-26T20:06:51.089Z,4.15
2022-09-26T20:09:21.898Z,4.07
2022-09-26T20:11:50.001Z,4.22
2022-09-26T20:14:23.735Z,4.40
2022-09-26T20:16:56.747Z,4.72
2022-09-26T20:19:40.673Z,5.13
2022-09-26T20:22:15.711Z,5.32
2022-09-26T20:24:44.324Z,5.43
2022-09-26T20:27:20.419Z,5.90
2022-09-26T20:30:07.438Z,6.00
2022-09-26T20:32:35.493Z,5.80
2022-09-26T20:35:05.154Z,6.28
2022-09-26T20:37:36.579Z,5.22
2022-09-26T20:40:07.468Z,5.30
2022-09-26T20:42:39.296Z,5.38
2022-09-26T20:45:11.199Z,5.07
2022-09-26T20:47:40.937Z,5.30
2022-09-26T20:50:18.764Z,5.50
2022-09-26T20:52:46.338Z,5.60
2022-09-26T20:55:18.994Z,6.00
2022-09-26T20:57:46.584Z,5.95
2022-09-26T21:00:16.112Z,5.93
2022-09-26T21:02:44.804Z,6.20
2022-09-26T21:05:20.675Z,6.50
2022-09-26T21:07:49.242Z,5.75
2022-09-26T21:10:29.041Z,5.82
2022-09-26T21:12:57.054Z,5.53
2022-09-26T21:15:26.308Z,5.53
2022-09-26T21:17:55.098Z,5.33
2022-09-26T21:20:29.537Z,5.13
2022-09-26T21:23:16.620Z,4.95
2022-09-26T21:25:44.050Z,4.90
2022-09-26T21:28:28.549Z,5.63
2022-09-26T21:31:03.342Z,4.57
2022-09-26T21:33:30.982Z,4.90
2022-09-26T21:35:58.534Z,4.90
2022-09-26T21:38:27.206Z,4.90
2022-09-26T21:41:00.044Z,4.68
2022-09-26T21:43:31.415Z,4.60
2022-09-26T21:45:58.947Z,4.95
2022-09-26T21:48:26.617Z,4.47
2022-09-26T21:50:58.364Z,4.53
2022-09-26T21:53:49.939Z,4.05
2022-09-26T21:56:24.634Z,4.40
2022-09-26T21:58:52.974Z,4.55
2022-09-26T22:01:20.651Z,4.85
2022-09-26T22:03:48.058Z,4.70
2022-09-26T22:06:15.459Z,4.97
2022-09-26T22:08:43.633Z,4.73
2022-09-26T22:11:11.205Z,5.07
2022-09-26T22:13:38.930Z,5.10
2022-09-26T22:16:10.434Z,5.38
2022-09-26T22:18:40.413Z,5.03
2022-09-26T22:21:09.933Z,5.20
2022-09-26T22:23:38.477Z,5.22
2022-09-26T22:26:06.963Z,5.03
2022-09-26T22:28:34.407Z,5.22
2022-09-26T22:31:05.569Z,5.10
2022-09-26T22:33:33.961Z,4.80
2022-09-26T22:36:01.536Z,5.00
2022-09-26T22:38:29.033Z,5.30
2022-09-26T22:41:05.698Z,5.45
2022-09-26T22:43:34.349Z,5.65
2022-09-26T22:46:07.986Z,5.30
2022-09-26T22:48:38.121Z,4.90
2022-09-26T22:51:06.197Z,4.50
2022-09-26T22:53:36.067Z,4.68
2022-09-26T22:56:08.540Z,4.25
2022-09-26T22:58:41.775Z,4.13
2022-09-26T23:01:22.610Z,4.25
2022-09-26T23:03:50.823Z,4.53
2022-09-26T23:06:18.309Z,4.25
2022-09-26T23:08:46.000Z,4.95
2022-09-26T23:11:15.026Z,4.30
2022-09-26T23:13:42.486Z,4.07
2022-09-26T23:16:12.563Z,4.30
2022-09-26T23:18:41.771Z,3.75
2022-09-26T23:21:13.616Z,4.10
2022-09-26T23:23:44.381Z,4.30
2022-09-26T23:26:18.077Z,4.63
2022-09-26T23:28:45.640Z,4.50
2022-09-26T23:31:13.270Z,4.43
2022-09-26T23:33:41.034Z,4.70
2022-09-26T23:36:09.345Z,4.70
2022-09-26T23:38:38.466Z,4.60
2022-09-26T23:41:07.438Z,5.07
2022-09-26T23:43:34.897Z,5.30
2022-09-26T23:46:02.452Z,5.32
2022-09-26T23:48:30.110Z,5.37
2022-09-26T23:50:57.966Z,5.43
2022-09-26T23:53:26.008Z,5.28
2022-09-26T23:55:53.615Z,5.40
2022-09-26T23:58:21.137Z,5.50
